sensor_id;sensor_type;location;lat;lon;timestamp;P1;durP1;ratioP1;P2;durP2;ratioP2
40745;SDS011;26454;51.164;4.488;2022-12-22T00:01:32;30.00;;;27.10;;
40745;SDS011;26454;51.164;4.488;2022-12-22T00:04:17;32.42;;;29.17;;
40745;SDS011;26454;51.164;4.488;2022-12-22T00:07:01;42.35;;;35.20;;
40745;SDS011;26454;51.164;4.488;2022-12-22T00:09:46;37.83;;;33.35;;
40745;SDS011;26454;51.164;4.488;2022-12-22T00:12:31;33.70;;;30.75;;
40745;SDS011;26454;51.164;4.488;2022-12-22T00:15:16;30.50;;;27.73;;
40745;SDS011;26454;51.164;4.488;2022-12-22T00:18:01;30.00;;;27.35;;
40745;SDS011;26454;51.164;4.488;2022-12-22T00:20:46;36.42;;;32.85;;
40745;SDS011;26454;51.164;4.488;2022-12-22T00:23:31;30.35;;;27.50;;
40745;SDS011;26454;51.164;4.488;2022-12-22T00:26:16;27.95;;;25.30;;
40745;SDS011;26454;51.164;4.488;2022-12-22T00:29:01;32.95;;;29.98;;
40745;SDS011;26454;51.164;4.488;2022-12-22T00:31:46;33.10;;;29.73;;
40745;SDS011;26454;51.164;4.488;2022-12-22T00:34:34;29.10;;;26.33;;
40745;SDS011;26454;51.164;4.488;2022-12-22T00:37:22;29.30;;;26.40;;
40745;SDS011;26454;51.164;4.488;2022-12-22T00:40:14;28.67;;;26.08;;
40745;SDS011;26454;51.164;4.488;2022-12-22T00:42:59;31.17;;;28.23;;
40745;SDS011;26454;51.164;4.488;2022-12-22T00:45:44;28.70;;;26.00;;
40745;SDS011;26454;51.164;4.488;2022-12-22T00:48:29;28.85;;;26.00;;
40745;SDS011;26454;51.164;4.488;2022-12-22T00:51:15;28.67;;;25.88;;
40745;SDS011;26454;51.164;4.488;2022-12-22T00:53:59;27.50;;;24.80;;
40745;SDS011;26454;51.164;4.488;2022-12-22T00:56:44;31.13;;;28.08;;
40745;SDS011;26454;51.164;4.488;2022-12-22T00:59:29;31.73;;;28.63;;
40745;SDS011;26454;51.164;4.488;2022-12-22T01:02:13;31.05;;;28.05;;
40745;SDS011;26454;51.164;4.488;2022-12-22T01:04:58;27.85;;;25.35;;
40745;SDS011;26454;51.164;4.488;2022-12-22T01:07:43;26.08;;;23.83;;
40745;SDS011;26454;51.164;4.488;2022-12-22T01:10:27;22.75;;;20.83;;
40745;SDS011;26454;51.164;4.488;2022-12-22T01:13:12;29.08;;;26.42;;
40745;SDS011;26454;51.164;4.488;2022-12-22T01:15:58;26.40;;;24.10;;
40745;SDS011;26454;51.164;4.488;2022-12-22T01:18:43;27.80;;;25.13;;
40745;SDS011;26454;51.164;4.488;2022-12-22T01:21:28;25.60;;;23.40;;
40745;SDS011;26454;51.164;4.488;2022-12-22T01:24:12;22.88;;;20.85;;
40745;SDS011;26454;51.164;4.488;2022-12-22T01:26:57;30.27;;;27.08;;
40745;SDS011;26454;51.164;4.488;2022-12-22T01:29:42;23.88;;;21.85;;
40745;SDS011;26454;51.164;4.488;2022-12-22T01:32:27;25.38;;;22.98;;
40745;SDS011;26454;51.164;4.488;2022-12-22T01:35:22;22.63;;;20.70;;
40745;SDS011;26454;51.164;4.488;2022-12-22T01:38:07;21.77;;;19.98;;
40745;SDS011;26454;51.164;4.488;2022-12-22T01:40:53;21.60;;;19.77;;
40745;SDS011;26454;51.164;4.488;2022-12-22T01:43:38;24.27;;;21.90;;
40745;SDS011;26454;51.164;4.488;2022-12-22T01:46:34;21.85;;;19.85;;
40745;SDS011;26454;51.164;4.488;2022-12-22T01:52:07;19.70;;;18.05;;
40745;SDS011;26454;51.164;4.488;2022-12-22T01:54:53;18.80;;;17.38;;
40745;SDS011;26454;51.164;4.488;2022-12-22T01:57:39;20.83;;;19.02;;
40745;SDS011;26454;51.164;4.488;2022-12-22T02:00:23;22.02;;;20.25;;
40745;SDS011;26454;51.164;4.488;2022-12-22T02:03:18;19.67;;;18.08;;
40745;SDS011;26454;51.164;4.488;2022-12-22T02:06:14;16.05;;;14.77;;
40745;SDS011;26454;51.164;4.488;2022-12-22T02:09:05;14.98;;;13.88;;
40745;SDS011;26454;51.164;4.488;2022-12-22T02:14:43;22.95;;;21.05;;
40745;SDS011;26454;51.164;4.488;2022-12-22T02:29:04;23.52;;;21.17;;
40745;SDS011;26454;51.164;4.488;2022-12-22T02:31:52;21.92;;;20.05;;
40745;SDS011;26454;51.164;4.488;2022-12-22T02:34:37;26.75;;;23.95;;
40745;SDS011;26454;51.164;4.488;2022-12-22T02:40:10;27.55;;;24.95;;
40745;SDS011;26454;51.164;4.488;2022-12-22T02:46:11;21.88;;;19.88;;
40745;SDS011;26454;51.164;4.488;2022-12-22T02:49:02;26.30;;;23.95;;
40745;SDS011;26454;51.164;4.488;2022-12-22T02:51:50;104.25;;;39.80;;
40745;SDS011;26454;51.164;4.488;2022-12-22T02:54:35;108.63;;;40.90;;
40745;SDS011;26454;51.164;4.488;2022-12-22T02:57:20;48.60;;;29.48;;
40745;SDS011;26454;51.164;4.488;2022-12-22T03:00:05;33.17;;;24.48;;
40745;SDS011;26454;51.164;4.488;2022-12-22T03:02:50;44.75;;;27.77;;
40745;SDS011;26454;51.164;4.488;2022-12-22T03:05:34;22.75;;;19.88;;
40745;SDS011;26454;51.164;4.488;2022-12-22T03:08:19;21.45;;;19.35;;
40745;SDS011;26454;51.164;4.488;2022-12-22T03:11:03;25.25;;;22.40;;
40745;SDS011;26454;51.164;4.488;2022-12-22T03:13:48;30.08;;;22.60;;
40745;SDS011;26454;51.164;4.488;2022-12-22T03:16:32;19.92;;;17.92;;
40745;SDS011;26454;51.164;4.488;2022-12-22T03:19:17;29.80;;;22.75;;
40745;SDS011;26454;51.164;4.488;2022-12-22T03:22:01;32.35;;;21.85;;
40745;SDS011;26454;51.164;4.488;2022-12-22T03:24:46;19.13;;;17.20;;
40745;SDS011;26454;51.164;4.488;2022-12-22T03:27:30;17.52;;;16.05;;
40745;SDS011;26454;51.164;4.488;2022-12-22T03:29:56;16.85;;;15.35;;
40745;SDS011;26454;51.164;4.488;2022-12-22T03:32:22;14.60;;;13.40;;
40745;SDS011;26454;51.164;4.488;2022-12-22T03:34:49;13.85;;;12.70;;
40745;SDS011;26454;51.164;4.488;2022-12-22T03:37:16;13.43;;;12.32;;
40745;SDS011;26454;51.164;4.488;2022-12-22T03:39:42;16.33;;;14.82;;
40745;SDS011;26454;51.164;4.488;2022-12-22T03:42:10;13.98;;;12.77;;
40745;SDS011;26454;51.164;4.488;2022-12-22T03:44:55;13.65;;;12.55;;
40745;SDS011;26454;51.164;4.488;2022-12-22T03:47:39;17.73;;;16.08;;
40745;SDS011;26454;51.164;4.488;2022-12-22T03:50:08;19.77;;;18.00;;
40745;SDS011;26454;51.164;4.488;2022-12-22T03:52:34;18.50;;;16.85;;
40745;SDS011;26454;51.164;4.488;2022-12-22T03:55:00;20.58;;;18.77;;
40745;SDS011;26454;51.164;4.488;2022-12-22T03:57:27;20.25;;;18.63;;
40745;SDS011;26454;51.164;4.488;2022-12-22T03:59:53;17.85;;;16.50;;
40745;SDS011;26454;51.164;4.488;2022-12-22T04:02:19;16.02;;;14.93;;
40745;SDS011;26454;51.164;4.488;2022-12-22T04:04:45;18.55;;;17.15;;
40745;SDS011;26454;51.164;4.488;2022-12-22T04:07:11;14.10;;;13.13;;
40745;SDS011;26454;51.164;4.488;2022-12-22T04:09:37;14.07;;;13.02;;
40745;SDS011;26454;51.164;4.488;2022-12-22T04:12:23;15.00;;;13.90;;
40745;SDS011;26454;51.164;4.488;2022-12-22T04:15:08;15.93;;;14.63;;
40745;SDS011;26454;51.164;4.488;2022-12-22T04:17:34;15.18;;;13.88;;
40745;SDS011;26454;51.164;4.488;2022-12-22T04:20:00;14.65;;;13.45;;
40745;SDS011;26454;51.164;4.488;2022-12-22T04:22:26;16.27;;;14.98;;
40745;SDS011;26454;51.164;4.488;2022-12-22T04:24:53;15.07;;;13.90;;
40745;SDS011;26454;51.164;4.488;2022-12-22T04:27:19;15.10;;;13.90;;
40745;SDS011;26454;51.164;4.488;2022-12-22T04:29:48;18.27;;;16.70;;
40745;SDS011;26454;51.164;4.488;2022-12-22T04:32:14;17.58;;;16.05;;
40745;SDS011;26454;51.164;4.488;2022-12-22T04:34:40;16.20;;;14.80;;
40745;SDS011;26454;51.164;4.488;2022-12-22T04:37:06;21.85;;;19.77;;
40745;SDS011;26454;51.164;4.488;2022-12-22T04:39:39;21.25;;;19.45;;
40745;SDS011;26454;51.164;4.488;2022-12-22T04:42:05;21.42;;;19.40;;
40745;SDS011;26454;51.164;4.488;2022-12-22T04:44:31;21.15;;;19.05;;
40745;SDS011;26454;51.164;4.488;2022-12-22T04:46:57;20.90;;;18.80;;
40745;SDS011;26454;51.164;4.488;2022-12-22T04:49:23;23.10;;;20.88;;
40745;SDS011;26454;51.164;4.488;2022-12-22T04:51:49;19.55;;;17.73;;
40745;SDS011;26454;51.164;4.488;2022-12-22T04:54:15;20.42;;;18.42;;
40745;SDS011;26454;51.164;4.488;2022-12-22T04:56:42;19.92;;;18.20;;
40745;SDS011;26454;51.164;4.488;2022-12-22T04:59:08;17.83;;;16.23;;
40745;SDS011;26454;51.164;4.488;2022-12-22T05:01:34;21.02;;;19.02;;
40745;SDS011;26454;51.164;4.488;2022-12-22T05:04:00;19.73;;;17.77;;
40745;SDS011;26454;51.164;4.488;2022-12-22T05:06:26;21.35;;;19.25;;
40745;SDS011;26454;51.164;4.488;2022-12-22T05:08:52;33.90;;;23.35;;
40745;SDS011;26454;51.164;4.488;2022-12-22T05:11:18;21.23;;;19.23;;
40745;SDS011;26454;51.164;4.488;2022-12-22T05:13:44;19.95;;;18.02;;
40745;SDS011;26454;51.164;4.488;2022-12-22T05:16:11;30.85;;;22.02;;
40745;SDS011;26454;51.164;4.488;2022-12-22T05:18:38;22.23;;;18.55;;
40745;SDS011;26454;51.164;4.488;2022-12-22T05:21:05;20.45;;;17.80;;
40745;SDS011;26454;51.164;4.488;2022-12-22T05:23:31;24.85;;;20.85;;
40745;SDS011;26454;51.164;4.488;2022-12-22T05:25:57;32.42;;;22.80;;
40745;SDS011;26454;51.164;4.488;2022-12-22T05:28:23;41.42;;;23.85;;
40745;SDS011;26454;51.164;4.488;2022-12-22T05:30:49;39.58;;;24.88;;
40745;SDS011;26454;51.164;4.488;2022-12-22T05:33:15;32.85;;;24.85;;
40745;SDS011;26454;51.164;4.488;2022-12-22T05:35:42;38.75;;;25.70;;
40745;SDS011;26454;51.164;4.488;2022-12-22T05:38:08;50.17;;;30.15;;
40745;SDS011;26454;51.164;4.488;2022-12-22T05:40:34;44.03;;;28.65;;
40745;SDS011;26454;51.164;4.488;2022-12-22T05:43:00;63.28;;;41.25;;
40745;SDS011;26454;51.164;4.488;2022-12-22T05:45:26;55.72;;;33.13;;
40745;SDS011;26454;51.164;4.488;2022-12-22T05:47:52;90.97;;;41.13;;
40745;SDS011;26454;51.164;4.488;2022-12-22T05:50:20;82.22;;;40.92;;
40745;SDS011;26454;51.164;4.488;2022-12-22T05:52:46;67.78;;;36.13;;
40745;SDS011;26454;51.164;4.488;2022-12-22T05:55:15;56.97;;;34.22;;
40745;SDS011;26454;51.164;4.488;2022-12-22T05:57:42;61.92;;;37.08;;
40745;SDS011;26454;51.164;4.488;2022-12-22T06:00:11;80.15;;;38.50;;
40745;SDS011;26454;51.164;4.488;2022-12-22T06:02:38;116.55;;;47.38;;
40745;SDS011;26454;51.164;4.488;2022-12-22T06:05:14;91.03;;;45.83;;
40745;SDS011;26454;51.164;4.488;2022-12-22T06:07:40;116.15;;;47.35;;
40745;SDS011;26454;51.164;4.488;2022-12-22T06:10:06;105.70;;;49.85;;
40745;SDS011;26454;51.164;4.488;2022-12-22T06:12:33;114.35;;;47.78;;
40745;SDS011;26454;51.164;4.488;2022-12-22T06:15:05;83.13;;;40.15;;
40745;SDS011;26454;51.164;4.488;2022-12-22T06:17:31;95.80;;;43.15;;
40745;SDS011;26454;51.164;4.488;2022-12-22T06:19:57;117.45;;;45.92;;
40745;SDS011;26454;51.164;4.488;2022-12-22T06:22:23;80.95;;;42.25;;
40745;SDS011;26454;51.164;4.488;2022-12-22T06:24:50;63.45;;;34.33;;
40745;SDS011;26454;51.164;4.488;2022-12-22T06:27:16;87.72;;;40.65;;
40745;SDS011;26454;51.164;4.488;2022-12-22T06:29:42;94.97;;;43.67;;
40745;SDS011;26454;51.164;4.488;2022-12-22T06:32:14;153.13;;;51.92;;
40745;SDS011;26454;51.164;4.488;2022-12-22T06:34:40;86.50;;;41.38;;
40745;SDS011;26454;51.164;4.488;2022-12-22T06:37:06;91.22;;;46.15;;
40745;SDS011;26454;51.164;4.488;2022-12-22T06:39:32;87.65;;;44.88;;
40745;SDS011;26454;51.164;4.488;2022-12-22T06:41:58;120.82;;;50.50;;
40745;SDS011;26454;51.164;4.488;2022-12-22T06:44:43;78.57;;;43.45;;
40745;SDS011;26454;51.164;4.488;2022-12-22T06:47:09;113.28;;;50.50;;
40745;SDS011;26454;51.164;4.488;2022-12-22T06:49:35;84.07;;;42.30;;
40745;SDS011;26454;51.164;4.488;2022-12-22T06:52:01;116.53;;;45.65;;
40745;SDS011;26454;51.164;4.488;2022-12-22T06:54:27;58.95;;;35.20;;
40745;SDS011;26454;51.164;4.488;2022-12-22T06:56:53;119.95;;;51.03;;
40745;SDS011;26454;51.164;4.488;2022-12-22T06:59:19;79.63;;;46.65;;
40745;SDS011;26454;51.164;4.488;2022-12-22T07:01:47;94.97;;;45.83;;
40745;SDS011;26454;51.164;4.488;2022-12-22T07:04:13;80.30;;;42.33;;
40745;SDS011;26454;51.164;4.488;2022-12-22T07:06:43;84.30;;;43.33;;
40745;SDS011;26454;51.164;4.488;2022-12-22T07:09:09;95.78;;;44.83;;
40745;SDS011;26454;51.164;4.488;2022-12-22T07:11:37;87.32;;;44.13;;
40745;SDS011;26454;51.164;4.488;2022-12-22T07:14:03;110.18;;;52.25;;
40745;SDS011;26454;51.164;4.488;2022-12-22T07:16:29;158.13;;;57.80;;
40745;SDS011;26454;51.164;4.488;2022-12-22T07:18:55;138.90;;;54.90;;
40745;SDS011;26454;51.164;4.488;2022-12-22T07:21:21;103.15;;;46.42;;
40745;SDS011;26454;51.164;4.488;2022-12-22T07:23:47;96.53;;;45.28;;
40745;SDS011;26454;51.164;4.488;2022-12-22T07:26:13;119.70;;;52.30;;
40745;SDS011;26454;51.164;4.488;2022-12-22T07:28:39;98.13;;;48.63;;
40745;SDS011;26454;51.164;4.488;2022-12-22T07:31:06;142.00;;;54.95;;
40745;SDS011;26454;51.164;4.488;2022-12-22T07:33:34;96.20;;;49.55;;
40745;SDS011;26454;51.164;4.488;2022-12-22T07:36:04;115.25;;;55.40;;
40745;SDS011;26454;51.164;4.488;2022-12-22T07:38:40;111.75;;;52.80;;
40745;SDS011;26454;51.164;4.488;2022-12-22T07:41:09;167.90;;;65.65;;
40745;SDS011;26454;51.164;4.488;2022-12-22T07:43:55;120.88;;;55.83;;
40745;SDS011;26454;51.164;4.488;2022-12-22T07:46:22;119.80;;;53.35;;
40745;SDS011;26454;51.164;4.488;2022-12-22T07:48:50;83.30;;;45.58;;
40745;SDS011;26454;51.164;4.488;2022-12-22T07:51:36;82.05;;;43.03;;
40745;SDS011;26454;51.164;4.488;2022-12-22T07:54:06;92.40;;;42.47;;
40745;SDS011;26454;51.164;4.488;2022-12-22T07:56:34;88.03;;;43.40;;
40745;SDS011;26454;51.164;4.488;2022-12-22T07:59:00;78.18;;;40.67;;
40745;SDS011;26454;51.164;4.488;2022-12-22T08:01:27;123.65;;;50.83;;
40745;SDS011;26454;51.164;4.488;2022-12-22T08:03:53;85.60;;;41.83;;
40745;SDS011;26454;51.164;4.488;2022-12-22T08:06:19;98.75;;;44.30;;
40745;SDS011;26454;51.164;4.488;2022-12-22T08:08:46;112.13;;;46.92;;
40745;SDS011;26454;51.164;4.488;2022-12-22T08:11:12;90.90;;;43.78;;
40745;SDS011;26454;51.164;4.488;2022-12-22T08:13:38;110.20;;;47.47;;
40745;SDS011;26454;51.164;4.488;2022-12-22T08:16:06;91.80;;;42.90;;
40745;SDS011;26454;51.164;4.488;2022-12-22T08:18:33;97.18;;;46.42;;
40745;SDS011;26454;51.164;4.488;2022-12-22T08:21:00;167.45;;;58.05;;
40745;SDS011;26454;51.164;4.488;2022-12-22T08:23:28;125.30;;;48.05;;
40745;SDS011;26454;51.164;4.488;2022-12-22T08:25:55;132.07;;;52.65;;
40745;SDS011;26454;51.164;4.488;2022-12-22T08:28:22;137.32;;;52.58;;
40745;SDS011;26454;51.164;4.488;2022-12-22T08:30:49;120.82;;;50.83;;
40745;SDS011;26454;51.164;4.488;2022-12-22T08:33:15;94.90;;;44.22;;
40745;SDS011;26454;51.164;4.488;2022-12-22T08:35:41;125.68;;;53.78;;
40745;SDS011;26454;51.164;4.488;2022-12-22T08:38:09;96.95;;;47.78;;
40745;SDS011;26454;51.164;4.488;2022-12-22T08:40:36;81.30;;;39.67;;
40745;SDS011;26454;51.164;4.488;2022-12-22T08:43:03;90.00;;;46.50;;
40745;SDS011;26454;51.164;4.488;2022-12-22T08:45:29;106.10;;;52.70;;
40745;SDS011;26454;51.164;4.488;2022-12-22T08:47:55;118.35;;;60.40;;
40745;SDS011;26454;51.164;4.488;2022-12-22T08:50:21;138.48;;;65.65;;
40745;SDS011;26454;51.164;4.488;2022-12-22T08:52:48;107.55;;;58.38;;
40745;SDS011;26454;51.164;4.488;2022-12-22T08:55:14;136.30;;;63.55;;
40745;SDS011;26454;51.164;4.488;2022-12-22T08:57:40;124.97;;;64.95;;
40745;SDS011;26454;51.164;4.488;2022-12-22T09:00:07;116.00;;;60.05;;
40745;SDS011;26454;51.164;4.488;2022-12-22T09:02:34;105.55;;;52.70;;
40745;SDS011;26454;51.164;4.488;2022-12-22T09:05:00;107.07;;;58.05;;
40745;SDS011;26454;51.164;4.488;2022-12-22T09:07:26;97.32;;;51.97;;
40745;SDS011;26454;51.164;4.488;2022-12-22T09:09:52;84.45;;;42.55;;
40745;SDS011;26454;51.164;4.488;2022-12-22T09:12:19;85.25;;;43.28;;
40745;SDS011;26454;51.164;4.488;2022-12-22T09:14:51;87.80;;;45.72;;
40745;SDS011;26454;51.164;4.488;2022-12-22T09:17:17;91.78;;;42.97;;
40745;SDS011;26454;51.164;4.488;2022-12-22T09:19:43;105.05;;;47.50;;
40745;SDS011;26454;51.164;4.488;2022-12-22T09:22:09;105.40;;;48.35;;
40745;SDS011;26454;51.164;4.488;2022-12-22T09:24:35;112.05;;;47.45;;
40745;SDS011;26454;51.164;4.488;2022-12-22T09:27:01;114.07;;;50.53;;
40745;SDS011;26454;51.164;4.488;2022-12-22T09:29:29;105.63;;;50.33;;
40745;SDS011;26454;51.164;4.488;2022-12-22T09:31:55;92.15;;;48.17;;
40745;SDS011;26454;51.164;4.488;2022-12-22T09:34:21;90.93;;;46.45;;
40745;SDS011;26454;51.164;4.488;2022-12-22T09:36:47;90.07;;;41.75;;
40745;SDS011;26454;51.164;4.488;2022-12-22T09:39:16;88.97;;;41.60;;
40745;SDS011;26454;51.164;4.488;2022-12-22T09:41:43;85.72;;;40.42;;
40745;SDS011;26454;51.164;4.488;2022-12-22T09:44:15;62.58;;;34.42;;
40745;SDS011;26454;51.164;4.488;2022-12-22T09:46:45;62.47;;;36.53;;
40745;SDS011;26454;51.164;4.488;2022-12-22T09:49:13;72.03;;;37.17;;
40745;SDS011;26454;51.164;4.488;2022-12-22T09:51:59;66.63;;;36.63;;
40745;SDS011;26454;51.164;4.488;2022-12-22T09:54:27;54.38;;;31.77;;
40745;SDS011;26454;51.164;4.488;2022-12-22T09:56:57;64.53;;;34.17;;
40745;SDS011;26454;51.164;4.488;2022-12-22T09:59:26;63.08;;;30.92;;
40745;SDS011;26454;51.164;4.488;2022-12-22T10:01:56;50.58;;;26.52;;
40745;SDS011;26454;51.164;4.488;2022-12-22T10:04:40;50.78;;;30.35;;
40745;SDS011;26454;51.164;4.488;2022-12-22T10:09:44;43.63;;;26.30;;
40745;SDS011;26454;51.164;4.488;2022-12-22T10:12:13;46.78;;;25.55;;
40745;SDS011;26454;51.164;4.488;2022-12-22T10:14:45;38.70;;;23.50;;
40745;SDS011;26454;51.164;4.488;2022-12-22T10:17:19;41.80;;;23.23;;
40745;SDS011;26454;51.164;4.488;2022-12-22T10:19:46;35.60;;;23.58;;
40745;SDS011;26454;51.164;4.488;2022-12-22T10:24:49;38.05;;;23.25;;
40745;SDS011;26454;51.164;4.488;2022-12-22T10:27:16;35.72;;;23.85;;
40745;SDS011;26454;51.164;4.488;2022-12-22T10:29:44;36.47;;;22.70;;
40745;SDS011;26454;51.164;4.488;2022-12-22T10:32:12;40.85;;;23.77;;
40745;SDS011;26454;51.164;4.488;2022-12-22T10:34:58;39.60;;;24.27;;
40745;SDS011;26454;51.164;4.488;2022-12-22T10:37:32;38.28;;;25.50;;
40745;SDS011;26454;51.164;4.488;2022-12-22T10:40:21;33.75;;;23.55;;
40745;SDS011;26454;51.164;4.488;2022-12-22T10:42:47;41.38;;;25.70;;
40745;SDS011;26454;51.164;4.488;2022-12-22T10:45:19;39.40;;;25.20;;
40745;SDS011;26454;51.164;4.488;2022-12-22T10:47:47;41.35;;;24.23;;
40745;SDS011;26454;51.164;4.488;2022-12-22T10:50:14;43.00;;;26.20;;
40745;SDS011;26454;51.164;4.488;2022-12-22T10:52:40;36.40;;;24.80;;
40745;SDS011;26454;51.164;4.488;2022-12-22T10:55:24;43.03;;;27.30;;
40745;SDS011;26454;51.164;4.488;2022-12-22T10:57:50;45.45;;;29.05;;
40745;SDS011;26454;51.164;4.488;2022-12-22T11:00:21;46.63;;;29.67;;
40745;SDS011;26454;51.164;4.488;2022-12-22T11:02:51;46.42;;;29.70;;
40745;SDS011;26454;51.164;4.488;2022-12-22T11:05:17;44.30;;;31.45;;
40745;SDS011;26454;51.164;4.488;2022-12-22T11:07:46;46.83;;;30.00;;
40745;SDS011;26454;51.164;4.488;2022-12-22T11:10:16;53.53;;;33.72;;
40745;SDS011;26454;51.164;4.488;2022-12-22T11:15:38;64.30;;;35.88;;
40745;SDS011;26454;51.164;4.488;2022-12-22T11:23:25;32.47;;;23.02;;
40745;SDS011;26454;51.164;4.488;2022-12-22T11:36:08;27.48;;;20.02;;
40745;SDS011;26454;51.164;4.488;2022-12-22T11:58:55;28.67;;;20.33;;
40745;SDS011;26454;51.164;4.488;2022-12-22T12:09:00;18.20;;;14.30;;
40745;SDS011;26454;51.164;4.488;2022-12-22T12:14:16;16.48;;;12.75;;
40745;SDS011;26454;51.164;4.488;2022-12-22T12:16:56;15.48;;;11.90;;
40745;SDS011;26454;51.164;4.488;2022-12-22T12:21:56;24.07;;;13.50;;
40745;SDS011;26454;51.164;4.488;2022-12-22T12:30:03;18.45;;;11.80;;
40745;SDS011;26454;51.164;4.488;2022-12-22T12:37:51;11.02;;;9.77;;
40745;SDS011;26454;51.164;4.488;2022-12-22T12:40:28;15.77;;;10.95;;
40745;SDS011;26454;51.164;4.488;2022-12-22T12:42:57;18.98;;;11.93;;
40745;SDS011;26454;51.164;4.488;2022-12-22T12:45:37;16.35;;;10.77;;
40745;SDS011;26454;51.164;4.488;2022-12-22T12:50:47;16.67;;;10.80;;
40745;SDS011;26454;51.164;4.488;2022-12-22T13:01:09;17.35;;;9.93;;
40745;SDS011;26454;51.164;4.488;2022-12-22T13:03:39;10.00;;;9.05;;
40745;SDS011;26454;51.164;4.488;2022-12-22T13:06:07;10.30;;;8.90;;
40745;SDS011;26454;51.164;4.488;2022-12-22T13:11:28;11.48;;;8.02;;
40745;SDS011;26454;51.164;4.488;2022-12-22T13:16:36;10.25;;;7.72;;
40745;SDS011;26454;51.164;4.488;2022-12-22T13:19:04;13.32;;;7.38;;
40745;SDS011;26454;51.164;4.488;2022-12-22T13:21:41;11.43;;;9.43;;
40745;SDS011;26454;51.164;4.488;2022-12-22T13:24:21;15.68;;;7.88;;
40745;SDS011;26454;51.164;4.488;2022-12-22T13:26:50;10.82;;;9.23;;
40745;SDS011;26454;51.164;4.488;2022-12-22T13:29:25;12.27;;;9.55;;
40745;SDS011;26454;51.164;4.488;2022-12-22T13:32:03;11.82;;;9.02;;
40745;SDS011;26454;51.164;4.488;2022-12-22T13:34:44;10.50;;;9.18;;
40745;SDS011;26454;51.164;4.488;2022-12-22T13:40:03;13.65;;;8.32;;
40745;SDS011;26454;51.164;4.488;2022-12-22T13:42:29;18.08;;;10.25;;
40745;SDS011;26454;51.164;4.488;2022-12-22T13:45:03;11.82;;;10.40;;
40745;SDS011;26454;51.164;4.488;2022-12-22T13:47:31;17.58;;;12.10;;
40745;SDS011;26454;51.164;4.488;2022-12-22T13:49:57;11.50;;;10.38;;
40745;SDS011;26454;51.164;4.488;2022-12-22T13:52:23;14.43;;;11.13;;
40745;SDS011;26454;51.164;4.488;2022-12-22T13:54:49;11.55;;;10.13;;
40745;SDS011;26454;51.164;4.488;2022-12-22T13:57:19;11.95;;;10.75;;
40745;SDS011;26454;51.164;4.488;2022-12-22T13:59:46;15.32;;;11.38;;
40745;SDS011;26454;51.164;4.488;2022-12-22T14:02:15;15.52;;;11.15;;
40745;SDS011;26454;51.164;4.488;2022-12-22T14:04:43;19.50;;;13.20;;
40745;SDS011;26454;51.164;4.488;2022-12-22T14:07:17;15.02;;;13.27;;
40745;SDS011;26454;51.164;4.488;2022-12-22T14:09:44;18.63;;;14.45;;
40745;SDS011;26454;51.164;4.488;2022-12-22T14:12:18;20.98;;;13.85;;
40745;SDS011;26454;51.164;4.488;2022-12-22T14:14:45;21.58;;;19.40;;
40745;SDS011;26454;51.164;4.488;2022-12-22T14:19:44;19.83;;;15.80;;
40745;SDS011;26454;51.164;4.488;2022-12-22T14:22:13;22.85;;;18.02;;
40745;SDS011;26454;51.164;4.488;2022-12-22T14:24:46;21.30;;;17.25;;
40745;SDS011;26454;51.164;4.488;2022-12-22T14:27:23;20.13;;;18.08;;
40745;SDS011;26454;51.164;4.488;2022-12-22T14:30:03;31.67;;;28.92;;
40745;SDS011;26454;51.164;4.488;2022-12-22T14:35:05;21.10;;;19.02;;
40745;SDS011;26454;51.164;4.488;2022-12-22T14:37:39;26.92;;;24.52;;
40745;SDS011;26454;51.164;4.488;2022-12-22T14:40:12;25.95;;;23.38;;
40745;SDS011;26454;51.164;4.488;2022-12-22T14:42:41;23.35;;;20.13;;
40745;SDS011;26454;51.164;4.488;2022-12-22T14:45:14;23.60;;;21.25;;
40745;SDS011;26454;51.164;4.488;2022-12-22T14:47:40;23.00;;;20.55;;
40745;SDS011;26454;51.164;4.488;2022-12-22T14:50:20;23.75;;;20.77;;
40745;SDS011;26454;51.164;4.488;2022-12-22T14:55:25;23.98;;;18.52;;
40745;SDS011;26454;51.164;4.488;2022-12-22T14:57:56;27.10;;;20.35;;
40745;SDS011;26454;51.164;4.488;2022-12-22T15:02:49;21.80;;;17.20;;
40745;SDS011;26454;51.164;4.488;2022-12-22T15:05:25;22.88;;;18.60;;
40745;SDS011;26454;51.164;4.488;2022-12-22T15:07:52;23.67;;;16.90;;
40745;SDS011;26454;51.164;4.488;2022-12-22T15:10:21;26.42;;;16.75;;
40745;SDS011;26454;51.164;4.488;2022-12-22T15:12:47;24.73;;;16.98;;
40745;SDS011;26454;51.164;4.488;2022-12-22T15:15:14;24.77;;;16.70;;
40745;SDS011;26454;51.164;4.488;2022-12-22T15:17:42;24.40;;;16.55;;
40745;SDS011;26454;51.164;4.488;2022-12-22T15:20:08;23.40;;;17.98;;
40745;SDS011;26454;51.164;4.488;2022-12-22T15:22:38;28.52;;;17.02;;
40745;SDS011;26454;51.164;4.488;2022-12-22T15:25:10;25.65;;;18.80;;
40745;SDS011;26454;51.164;4.488;2022-12-22T15:27:37;27.30;;;16.75;;
40745;SDS011;26454;51.164;4.488;2022-12-22T15:30:03;26.50;;;17.52;;
40745;SDS011;26454;51.164;4.488;2022-12-22T15:32:29;27.02;;;15.82;;
40745;SDS011;26454;51.164;4.488;2022-12-22T15:34:55;28.90;;;16.02;;
40745;SDS011;26454;51.164;4.488;2022-12-22T15:37:21;26.35;;;16.60;;
40745;SDS011;26454;51.164;4.488;2022-12-22T15:39:47;29.63;;;15.57;;
40745;SDS011;26454;51.164;4.488;2022-12-22T15:42:13;36.80;;;16.67;;
40745;SDS011;26454;51.164;4.488;2022-12-22T15:44:39;28.73;;;16.30;;
40745;SDS011;26454;51.164;4.488;2022-12-22T15:47:07;40.47;;;17.00;;
40745;SDS011;26454;51.164;4.488;2022-12-22T15:49:35;30.53;;;15.03;;
40745;SDS011;26454;51.164;4.488;2022-12-22T15:52:01;34.00;;;16.38;;
40745;SDS011;26454;51.164;4.488;2022-12-22T15:54:28;32.50;;;14.95;;
40745;SDS011;26454;51.164;4.488;2022-12-22T15:56:57;50.45;;;16.83;;
40745;SDS011;26454;51.164;4.488;2022-12-22T15:59:23;44.55;;;17.27;;
40745;SDS011;26454;51.164;4.488;2022-12-22T16:01:50;42.00;;;16.52;;
40745;SDS011;26454;51.164;4.488;2022-12-22T16:04:16;54.67;;;16.00;;
40745;SDS011;26454;51.164;4.488;2022-12-22T16:06:43;44.45;;;16.85;;
40745;SDS011;26454;51.164;4.488;2022-12-22T16:09:37;46.63;;;18.10;;
40745;SDS011;26454;51.164;4.488;2022-12-22T16:12:13;46.67;;;16.08;;
40745;SDS011;26454;51.164;4.488;2022-12-22T16:14:41;49.05;;;18.55;;
40745;SDS011;26454;51.164;4.488;2022-12-22T16:17:17;47.13;;;17.20;;
40745;SDS011;26454;51.164;4.488;2022-12-22T16:19:44;55.97;;;16.02;;
40745;SDS011;26454;51.164;4.488;2022-12-22T16:22:12;53.08;;;16.58;;
40745;SDS011;26454;51.164;4.488;2022-12-22T16:24:38;54.20;;;21.73;;
40745;SDS011;26454;51.164;4.488;2022-12-22T16:27:07;50.35;;;15.40;;
40745;SDS011;26454;51.164;4.488;2022-12-22T16:29:34;47.85;;;16.13;;
40745;SDS011;26454;51.164;4.488;2022-12-22T16:32:16;57.58;;;19.98;;
40745;SDS011;26454;51.164;4.488;2022-12-22T16:34:42;59.63;;;17.00;;
40745;SDS011;26454;51.164;4.488;2022-12-22T16:37:08;58.45;;;22.55;;
40745;SDS011;26454;51.164;4.488;2022-12-22T16:39:34;62.58;;;20.75;;
40745;SDS011;26454;51.164;4.488;2022-12-22T16:42:00;57.15;;;18.05;;
40745;SDS011;26454;51.164;4.488;2022-12-22T16:44:26;80.50;;;22.45;;
40745;SDS011;26454;51.164;4.488;2022-12-22T16:46:52;71.28;;;19.95;;
40745;SDS011;26454;51.164;4.488;2022-12-22T16:49:20;74.70;;;18.48;;